Time;durP1;ratioP1;P1;durP2;ratioP2;P2;SDS_P1;SDS_P2;PMS_P1;PMS_P2;Temp;Humidity;BMP_temperature;BMP_pressure;BME280_temperature;BME280_humidity;BME280_pressure;Samples;Min_cycle;Max_cycle;Signal;HPM_P1;HPM_P2
2024/01/12 00:00:15;;;;;;;47.83;25.27;;;2.00;99.90;;;;;;5058968;28;20158;-62
2024/01/12 00:02:41;;;;;;;46.30;25.67;;;2.00;99.90;;;;;;5077235;28;20483;-62
2024/01/12 00:05:07;;;;;;;44.08;25.98;;;2.00;99.90;;;;;;5081223;28;20047;-61
2024/01/12 00:07:33;;;;;;;47.33;28.40;;;2.00;99.90;;;;;;5077094;28;20052;-60
2024/01/12 00:09:59;;;;;;;49.75;27.38;;;2.00;99.90;;;;;;5079533;28;20611;-62
2024/01/12 00:12:25;;;;;;;51.10;27.42;;;2.00;99.90;;;;;;5078830;28;20056;-62
2024/01/12 00:14:50;;;;;;;46.22;26.15;;;2.00;99.90;;;;;;5075527;28;20044;-62
2024/01/12 00:17:18;;;;;;;50.63;27.42;;;2.00;99.90;;;;;;5076699;28;20040;-60
2024/01/12 00:19:45;;;;;;;45.67;26.73;;;2.00;99.90;;;;;;5078056;28;20040;-60
2024/01/12 00:22:11;;;;;;;44.88;26.15;;;2.00;99.90;;;;;;5080110;28;20044;-62
2024/01/12 00:24:37;;;;;;;41.78;25.80;;;2.00;99.90;;;;;;5081007;28;20372;-63
2024/01/12 00:27:02;;;;;;;39.58;23.48;;;2.00;99.90;;;;;;5078208;28;20079;-62
2024/01/12 00:29:28;;;;;;;44.38;24.67;;;2.00;99.90;;;;;;5056746;28;20048;-62
2024/01/12 00:31:55;;;;;;;42.03;24.45;;;2.00;99.90;;;;;;5079898;28;20032;-63
2024/01/12 00:34:21;;;;;;;35.00;21.38;;;2.00;99.90;;;;;;5075065;28;20040;-61
2024/01/12 00:36:48;;;;;;;35.13;21.65;;;2.00;99.90;;;;;;5079386;28;20047;-64
2024/01/12 00:39:15;;;;;;;35.67;21.17;;;2.00;99.90;;;;;;5072160;28;20904;-61
2024/01/12 00:41:41;;;;;;;37.97;22.60;;;2.00;99.90;;;;;;5063419;28;21637;-63
2024/01/12 00:44:07;;;;;;;43.63;24.25;;;2.00;99.90;;;;;;5078256;28;20032;-61
2024/01/12 00:46:33;;;;;;;42.17;23.08;;;2.00;99.90;;;;;;5078279;28;20047;-62
2024/01/12 00:48:59;;;;;;;34.83;21.80;;;2.00;99.90;;;;;;5077353;28;20048;-61
2024/01/12 00:51:25;;;;;;;40.83;23.48;;;2.00;99.90;;;;;;5078701;28;20544;-64
2024/01/12 00:53:51;;;;;;;37.08;21.30;;;2.00;99.90;;;;;;5080130;28;20567;-63
2024/01/12 00:56:16;;;;;;;41.97;21.52;;;2.00;99.90;;;;;;5078502;28;20036;-62
2024/01/12 00:58:42;;;;;;;36.85;21.02;;;2.00;99.90;;;;;;5075351;28;20036;-61
2024/01/12 01:01:09;;;;;;;26.90;17.67;;;2.00;99.90;;;;;;5077364;28;20048;-62
2024/01/12 01:03:38;;;;;;;28.38;17.27;;;2.00;99.90;;;;;;5060401;28;20494;-63
2024/01/12 01:06:04;;;;;;;27.40;18.48;;;2.00;99.90;;;;;;5076439;28;20040;-62
2024/01/12 01:08:30;;;;;;;28.85;16.90;;;2.00;99.90;;;;;;5077220;28;20041;-63
2024/01/12 01:10:56;;;;;;;25.33;17.20;;;2.00;99.90;;;;;;5078757;28;20198;-62
2024/01/12 01:13:21;;;;;;;29.02;16.52;;;2.10;99.90;;;;;;5077666;28;20051;-62
2024/01/12 01:15:47;;;;;;;27.60;17.13;;;2.00;99.90;;;;;;5077559;28;20700;-62
2024/01/12 01:18:13;;;;;;;26.92;16.23;;;2.10;99.90;;;;;;5058480;28;20059;-63
2024/01/12 01:20:39;;;;;;;26.25;15.60;;;2.10;99.90;;;;;;5051000;28;20040;-63
2024/01/12 01:23:05;;;;;;;24.40;14.38;;;2.00;99.90;;;;;;5067778;28;20041;-64
2024/01/12 01:25:31;;;;;;;25.70;14.95;;;2.10;99.90;;;;;;5055273;28;20654;-62
2024/01/12 01:27:57;;;;;;;23.13;13.70;;;2.10;99.90;;;;;;5075912;28;20040;-61
2024/01/12 01:30:22;;;;;;;20.88;13.68;;;2.10;99.90;;;;;;5061614;28;20484;-63
2024/01/12 01:32:48;;;;;;;22.27;13.40;;;2.10;99.90;;;;;;5074161;28;20050;-63
2024/01/12 01:35:15;;;;;;;20.67;12.82;;;2.10;99.90;;;;;;5071664;28;20081;-63
2024/01/12 01:37:41;;;;;;;21.65;12.60;;;2.10;99.90;;;;;;5079314;28;20048;-63
2024/01/12 01:40:07;;;;;;;19.63;12.82;;;2.10;99.90;;;;;;5075661;28;20044;-62
2024/01/12 01:42:34;;;;;;;21.48;12.73;;;2.20;99.90;;;;;;5073867;28;20068;-62
2024/01/12 01:45:00;;;;;;;18.23;11.73;;;2.20;99.90;;;;;;5081772;28;22220;-62
2024/01/12 01:47:27;;;;;;;21.67;12.80;;;2.20;99.90;;;;;;5083585;28;20040;-62
2024/01/12 01:49:52;;;;;;;27.67;13.40;;;2.20;99.90;;;;;;5077242;28;20052;-63
2024/01/12 01:52:20;;;;;;;28.00;13.15;;;2.20;99.90;;;;;;5080106;28;20056;-64
2024/01/12 01:54:47;;;;;;;25.75;11.00;;;2.20;99.90;;;;;;5074932;28;20056;-64
2024/01/12 01:57:13;;;;;;;25.77;12.35;;;2.20;99.90;;;;;;5072512;28;20414;-62
2024/01/12 01:59:39;;;;;;;26.50;12.27;;;2.20;99.90;;;;;;5072770;28;20127;-64
2024/01/12 02:02:05;;;;;;;49.00;15.25;;;2.20;99.90;;;;;;5069160;28;20119;-63
2024/01/12 02:04:31;;;;;;;50.42;18.70;;;2.30;99.90;;;;;;5082021;28;20128;-62
2024/01/12 02:06:57;;;;;;;25.67;10.93;;;2.30;99.90;;;;;;5080559;28;20040;-62
2024/01/12 02:09:24;;;;;;;21.40;7.38;;;2.30;99.90;;;;;;5080040;28;20044;-61
2024/01/12 02:11:49;;;;;;;16.65;6.07;;;2.30;99.90;;;;;;5078923;28;20040;-62
2024/01/12 02:14:15;;;;;;;14.27;5.75;;;2.30;99.90;;;;;;5077949;28;20069;-60
2024/01/12 02:16:41;;;;;;;17.50;6.20;;;2.40;99.90;;;;;;5073895;28;20052;-62
2024/01/12 02:19:07;;;;;;;25.08;7.70;;;2.40;99.90;;;;;;5080860;28;20163;-63
2024/01/12 02:21:32;;;;;;;19.15;5.95;;;2.40;99.90;;;;;;5080360;28;20495;-63
2024/01/12 02:23:58;;;;;;;17.75;5.03;;;2.40;99.90;;;;;;5078009;28;20402;-63
2024/01/12 02:26:24;;;;;;;16.27;6.35;;;2.50;99.90;;;;;;5070378;28;20480;-63
2024/01/12 02:28:50;;;;;;;18.98;4.72;;;2.40;99.90;;;;;;5069250;28;20142;-63
2024/01/12 02:31:16;;;;;;;17.63;4.38;;;2.50;99.90;;;;;;5077643;28;20135;-62
2024/01/12 02:33:42;;;;;;;15.60;4.57;;;2.50;99.90;;;;;;5080747;28;20032;-62
2024/01/12 02:36:07;;;;;;;13.18;3.78;;;2.50;99.90;;;;;;5079282;28;20146;-63
2024/01/12 02:38:35;;;;;;;17.67;4.95;;;2.50;99.90;;;;;;5083442;28;20044;-62
2024/01/12 02:41:00;;;;;;;10.73;3.55;;;2.50;99.90;;;;;;5059326;28;20135;-62
2024/01/12 02:43:26;;;;;;;22.17;5.30;;;2.50;99.90;;;;;;5080660;28;20130;-63
2024/01/12 02:45:51;;;;;;;22.40;6.20;;;2.60;99.90;;;;;;5075023;28;20103;-61
2024/01/12 02:48:17;;;;;;;19.02;5.57;;;2.60;99.90;;;;;;5080527;28;20040;-62
2024/01/12 02:50:43;;;;;;;13.25;3.88;;;2.60;99.90;;;;;;5076866;28;20040;-63
2024/01/12 02:53:08;;;;;;;13.88;3.65;;;2.60;99.90;;;;;;5079737;28;20064;-63
2024/01/12 02:55:34;;;;;;;13.93;3.55;;;2.60;99.90;;;;;;5081528;28;20028;-61
2024/01/12 02:58:00;;;;;;;10.18;3.10;;;2.60;99.90;;;;;;5077019;28;20133;-61
2024/01/12 03:00:25;;;;;;;13.13;3.85;;;2.60;99.90;;;;;;5079528;28;20051;-63
2024/01/12 03:02:51;;;;;;;12.50;3.45;;;2.60;99.90;;;;;;5079728;28;20040;-61
2024/01/12 03:05:17;;;;;;;13.80;3.50;;;2.60;99.90;;;;;;5079500;28;20044;-62
2024/01/12 03:07:42;;;;;;;17.25;3.83;;;2.60;99.90;;;;;;5077407;28;20050;-61
2024/01/12 03:10:08;;;;;;;8.02;3.25;;;2.60;99.90;;;;;;5080309;28;20044;-61
2024/01/12 03:12:34;;;;;;;11.60;3.92;;;2.60;99.90;;;;;;5080187;28;20043;-61
2024/01/12 03:15:00;;;;;;;13.85;3.38;;;2.60;99.90;;;;;;5082433;28;20039;-62
2024/01/12 03:17:25;;;;;;;8.40;3.00;;;2.60;99.90;;;;;;5075950;28;20052;-61
2024/01/12 03:19:51;;;;;;;10.45;3.35;;;2.60;99.90;;;;;;5078799;28;20036;-61
2024/01/12 03:22:17;;;;;;;9.18;3.10;;;2.60;99.90;;;;;;5081370;28;20048;-63
2024/01/12 03:24:43;;;;;;;8.13;3.00;;;2.60;99.90;;;;;;5079292;28;20040;-62
2024/01/12 03:27:08;;;;;;;8.98;3.45;;;2.50;99.90;;;;;;5077548;28;20058;-61
2024/01/12 03:29:34;;;;;;;9.65;2.85;;;2.50;99.90;;;;;;5075740;28;20048;-64
2024/01/12 03:31:59;;;;;;;10.52;3.17;;;2.50;99.90;;;;;;5079090;28;20040;-60
2024/01/12 03:34:25;;;;;;;8.88;3.35;;;2.60;99.90;;;;;;5080860;28;20443;-61
2024/01/12 03:36:51;;;;;;;11.10;3.90;;;2.50;99.90;;;;;;5078150;28;20123;-61
2024/01/12 03:39:16;;;;;;;13.02;4.03;;;2.50;99.90;;;;;;5075561;28;20518;-63
2024/01/12 03:41:42;;;;;;;10.73;3.20;;;2.50;99.90;;;;;;5077007;28;20108;-62
2024/01/12 03:44:08;;;;;;;6.63;2.60;;;2.50;99.90;;;;;;5079799;28;20040;-61
2024/01/12 03:46:33;;;;;;;9.75;3.42;;;2.50;99.90;;;;;;5078639;28;20067;-64
2024/01/12 03:48:59;;;;;;;11.20;3.17;;;2.50;99.90;;;;;;5080242;28;20438;-61
2024/01/12 03:51:24;;;;;;;8.20;2.78;;;2.40;99.90;;;;;;5080229;28;20035;-60
2024/01/12 03:53:50;;;;;;;14.55;3.30;;;2.40;99.90;;;;;;5074059;28;20048;-63
2024/01/12 03:56:16;;;;;;;7.25;3.25;;;2.40;99.90;;;;;;5062660;28;20105;-63
2024/01/12 03:58:41;;;;;;;9.10;3.60;;;2.40;99.90;;;;;;5077640;28;20433;-62
2024/01/12 04:01:07;;;;;;;10.48;3.50;;;2.40;99.90;;;;;;5079091;28;20054;-62
2024/01/12 04:03:33;;;;;;;11.73;3.92;;;2.30;99.90;;;;;;5074220;28;20048;-61
2024/01/12 04:05:59;;;;;;;9.45;3.60;;;2.30;99.90;;;;;;5081851;28;20046;-62
2024/01/12 04:08:25;;;;;;;11.13;3.00;;;2.30;99.90;;;;;;5079463;28;20032;-61
2024/01/12 04:10:50;;;;;;;7.72;3.03;;;2.30;99.90;;;;;;5080791;28;20028;-63
2024/01/12 04:13:16;;;;;;;7.97;2.92;;;2.30;99.90;;;;;;5073556;28;20033;-62
2024/01/12 04:15:43;;;;;;;9.52;3.35;;;2.30;99.90;;;;;;5074957;28;20097;-62
2024/01/12 04:18:09;;;;;;;6.90;3.45;;;2.30;99.90;;;;;;5077459;28;20060;-62
2024/01/12 04:20:34;;;;;;;9.23;3.53;;;2.30;99.90;;;;;;5070748;28;20408;-61
2024/01/12 04:23:00;;;;;;;11.32;2.90;;;2.30;99.90;;;;;;5078141;28;20045;-61
2024/01/12 04:25:25;;;;;;;9.07;3.10;;;2.30;99.90;;;;;;5078920;28;20039;-63
2024/01/12 04:27:51;;;;;;;11.10;2.90;;;2.30;99.90;;;;;;5077458;28;20135;-63
2024/01/12 04:30:16;;;;;;;6.72;3.17;;;2.30;99.90;;;;;;5080100;28;20040;-64
2024/01/12 04:32:42;;;;;;;8.73;2.83;;;2.30;99.90;;;;;;5071778;28;20050;-62
2024/01/12 04:35:09;;;;;;;7.32;2.72;;;2.30;99.90;;;;;;5077290;28;20043;-62
2024/01/12 04:37:35;;;;;;;6.90;2.95;;;2.30;99.90;;;;;;5079397;28;20076;-64
2024/01/12 04:40:00;;;;;;;7.13;2.90;;;2.30;99.90;;;;;;5077522;28;20114;-62
2024/01/12 04:42:26;;;;;;;11.23;3.28;;;2.30;99.90;;;;;;5081307;28;20127;-61
2024/01/12 04:44:51;;;;;;;7.18;2.90;;;2.30;99.90;;;;;;5076291;28;20049;-60
2024/01/12 04:47:17;;;;;;;10.35;3.00;;;2.30;99.90;;;;;;5077132;28;20043;-63
2024/01/12 04:49:43;;;;;;;8.60;2.72;;;2.30;99.90;;;;;;5074434;28;20044;-61
2024/01/12 04:52:08;;;;;;;12.45;3.03;;;2.40;99.90;;;;;;5059425;28;20060;-63
2024/01/12 04:54:34;;;;;;;6.32;2.65;;;2.30;99.90;;;;;;5077600;28;20040;-63
2024/01/12 04:57:00;;;;;;;10.18;3.28;;;2.40;99.90;;;;;;5079922;28;20036;-62
2024/01/12 04:59:25;;;;;;;9.93;3.42;;;2.40;99.90;;;;;;5059211;28;20051;-63
2024/01/12 05:01:51;;;;;;;9.93;3.10;;;2.40;99.90;;;;;;5071263;28;20394;-62
2024/01/12 05:04:16;;;;;;;9.65;3.13;;;2.40;99.90;;;;;;5074607;28;20036;-62
2024/01/12 05:06:42;;;;;;;6.53;2.72;;;2.40;99.90;;;;;;5071948;28;20109;-63
2024/01/12 05:09:08;;;;;;;10.57;3.97;;;2.40;99.90;;;;;;5079466;28;20059;-61
2024/01/12 05:11:33;;;;;;;9.85;2.60;;;2.40;99.90;;;;;;5070017;28;20040;-60
2024/01/12 05:13:59;;;;;;;12.73;3.38;;;2.50;99.90;;;;;;5076315;28;20398;-61
2024/01/12 05:16:25;;;;;;;8.35;2.78;;;2.50;99.90;;;;;;5078076;28;20067;-62
2024/01/12 05:18:51;;;;;;;14.55;3.13;;;2.50;99.90;;;;;;5083584;28;20040;-62
2024/01/12 05:21:17;;;;;;;8.55;3.05;;;2.50;99.90;;;;;;5057526;28;20052;-61
2024/01/12 05:23:46;;;;;;;11.43;4.60;;;2.50;99.90;;;;;;5077788;28;20121;-62
2024/01/12 05:26:13;;;;;;;10.18;4.47;;;2.50;99.90;;;;;;5075339;28;20031;-63
2024/01/12 05:28:38;;;;;;;12.98;3.40;;;2.50;99.90;;;;;;5080513;28;20048;-61
2024/01/12 05:31:04;;;;;;;8.35;3.25;;;2.50;99.90;;;;;;5058966;28;20051;-62
2024/01/12 05:33:30;;;;;;;11.80;3.30;;;2.50;99.90;;;;;;5079352;28;20059;-62
2024/01/12 05:35:56;;;;;;;10.68;3.20;;;2.50;99.90;;;;;;5081385;28;20040;-62
2024/01/12 05:38:21;;;;;;;10.30;2.83;;;2.50;99.90;;;;;;5081089;28;20044;-61
2024/01/12 05:40:47;;;;;;;7.50;2.90;;;2.50;99.90;;;;;;5078582;28;21580;-65
2024/01/12 05:43:13;;;;;;;10.10;3.10;;;2.50;99.90;;;;;;5076092;28;20048;-62
2024/01/12 05:45:38;;;;;;;10.90;3.78;;;2.60;99.90;;;;;;5070455;28;20036;-62
2024/01/12 05:48:04;;;;;;;9.07;3.50;;;2.50;99.90;;;;;;5079817;28;20043;-61
2024/01/12 05:50:30;;;;;;;12.27;3.30;;;2.50;99.90;;;;;;5082151;28;20047;-62
2024/01/12 05:52:56;;;;;;;12.63;3.13;;;2.50;99.90;;;;;;5079147;28;20395;-63
2024/01/12 05:55:21;;;;;;;9.73;2.95;;;2.50;99.90;;;;;;5077788;28;20074;-60
2024/01/12 05:57:47;;;;;;;8.68;3.40;;;2.50;99.90;;;;;;5069440;28;20047;-60
2024/01/12 06:00:13;;;;;;;13.20;3.85;;;2.40;99.90;;;;;;5071288;28;20042;-62
2024/01/12 06:02:38;;;;;;;8.80;3.60;;;2.40;99.90;;;;;;5074907;28;20036;-61
2024/01/12 06:05:04;;;;;;;10.73;3.47;;;2.40;99.90;;;;;;5076516;28;20066;-61
2024/01/12 06:07:30;;;;;;;7.85;3.38;;;2.40;99.90;;;;;;5074006;28;20044;-62
2024/01/12 06:09:55;;;;;;;11.82;4.47;;;2.40;99.90;;;;;;5084695;28;20564;-61
2024/01/12 06:12:21;;;;;;;8.57;3.28;;;2.30;99.90;;;;;;5069174;28;20075;-61
2024/01/12 06:14:47;;;;;;;7.97;3.20;;;2.30;99.90;;;;;;5079098;28;20036;-62
2024/01/12 06:17:12;;;;;;;9.35;3.95;;;2.20;99.90;;;;;;5077734;28;20127;-63
2024/01/12 06:19:38;;;;;;;7.70;3.53;;;2.20;99.90;;;;;;5079195;28;20060;-62
2024/01/12 06:22:04;;;;;;;9.77;3.47;;;2.20;99.90;;;;;;5072016;28;20068;-61
2024/01/12 06:24:30;;;;;;;9.50;3.30;;;2.20;99.90;;;;;;5075350;28;20827;-62
2024/01/12 06:26:55;;;;;;;9.32;3.70;;;2.20;99.90;;;;;;5078677;28;20032;-63
2024/01/12 06:29:21;;;;;;;8.18;3.35;;;2.20;99.90;;;;;;5078084;28;20512;-62
2024/01/12 06:31:47;;;;;;;8.55;3.33;;;2.20;99.90;;;;;;5076493;28;20082;-60
2024/01/12 06:34:13;;;;;;;9.82;4.35;;;2.20;99.90;;;;;;5078450;28;20055;-61
2024/01/12 06:36:45;;;;;;;11.10;3.40;;;2.20;99.90;;;;;;5077820;28;20498;-63
2024/01/12 06:39:11;;;;;;;14.45;4.32;;;2.20;99.90;;;;;;5063088;28;20041;-63
2024/01/12 06:41:43;;;;;;;12.95;4.70;;;2.20;99.90;;;;;;5075742;28;20415;-63
2024/01/12 06:44:09;;;;;;;;;;;2.20;99.90;;;;;;5074131;28;20411;-62
2024/01/12 06:46:40;;;;;;;16.55;5.30;;;2.20;99.90;;;;;;5073906;28;19920;-62
2024/01/12 06:49:05;;;;;;;8.65;3.92;;;2.10;99.90;;;;;;5080838;28;20523;-62
2024/01/12 06:51:31;;;;;;;9.60;4.32;;;2.10;99.90;;;;;;5082148;28;20067;-62
2024/01/12 06:53:56;;;;;;;8.27;4.47;;;2.10;99.90;;;;;;5072489;28;20060;-62
2024/01/12 06:56:22;;;;;;;13.95;5.05;;;2.10;99.90;;;;;;5082099;28;20082;-62
2024/01/12 06:58:48;;;;;;;10.02;5.10;;;2.20;99.90;;;;;;5072717;28;20402;-62
2024/01/12 07:01:19;;;;;;;10.40;4.32;;;2.20;99.90;;;;;;5075796;28;20047;-64
2024/01/12 07:03:45;;;;;;;11.03;4.20;;;2.20;99.90;;;;;;5072709;28;20139;-62
2024/01/12 07:06:11;;;;;;;8.55;4.32;;;2.30;99.90;;;;;;5072377;28;20138;-63
2024/01/12 07:08:37;;;;;;;13.15;4.55;;;2.30;99.90;;;;;;5070930;28;20055;-63
2024/01/12 07:11:03;;;;;;;12.75;4.07;;;2.30;99.90;;;;;;5055647;28;20143;-62
2024/01/12 07:13:29;;;;;;;9.38;4.55;;;2.30;99.90;;;;;;5072291;28;20036;-64
2024/01/12 07:15:55;;;;;;;8.75;4.63;;;2.30;99.90;;;;;;5072009;28;20117;-64
2024/01/12 07:18:20;;;;;;;10.60;4.05;;;2.30;99.90;;;;;;5073581;28;20056;-62
2024/01/12 07:20:46;;;;;;;11.18;4.57;;;2.30;99.90;;;;;;5068093;28;20044;-63
2024/01/12 07:23:12;;;;;;;8.50;4.03;;;2.40;99.90;;;;;;5078273;28;20032;-64
2024/01/12 07:25:38;;;;;;;10.23;4.15;;;2.30;99.90;;;;;;5072201;28;20047;-63
2024/01/12 07:28:05;;;;;;;14.32;4.80;;;2.40;99.90;;;;;;5072712;28;20118;-63
2024/01/12 07:30:31;;;;;;;11.75;6.78;;;2.40;99.90;;;;;;5068724;28;20170;-62
2024/01/12 07:32:57;;;;;;;9.82;4.65;;;2.40;99.90;;;;;;5069322;28;20041;-61
2024/01/12 07:35:23;;;;;;;16.65;5.60;;;2.40;99.90;;;;;;5068545;28;20199;-64
2024/01/12 07:37:50;;;;;;;8.90;4.88;;;2.40;99.90;;;;;;5069091;28;20167;-62
2024/01/12 07:40:16;;;;;;;11.07;4.60;;;2.40;99.90;;;;;;5077202;28;20052;-64
2024/01/12 07:42:42;;;;;;;13.07;5.10;;;2.40;99.90;;;;;;5076676;28;20384;-65
2024/01/12 07:45:08;;;;;;;10.55;5.03;;;2.40;99.90;;;;;;5080268;28;20039;-62
2024/01/12 07:47:34;;;;;;;14.52;5.20;;;2.40;99.90;;;;;;5075593;28;20057;-63
2024/01/12 07:49:59;;;;;;;14.38;5.40;;;2.40;99.90;;;;;;5076239;28;20051;-62
2024/01/12 07:52:26;;;;;;;11.52;5.63;;;2.40;99.90;;;;;;5071496;28;20074;-63
2024/01/12 07:54:52;;;;;;;14.40;5.38;;;2.40;99.90;;;;;;5071701;28;20483;-63
2024/01/12 07:57:17;;;;;;;15.60;5.30;;;2.30;99.90;;;;;;5068845;28;20037;-63
2024/01/12 07:59:43;;;;;;;9.77;5.00;;;2.30;99.90;;;;;;5053747;28;20101;-62
2024/01/12 08:02:09;;;;;;;12.35;5.15;;;2.30;99.90;;;;;;5070672;28;20098;-63
2024/01/12 08:04:37;;;;;;;16.92;5.72;;;2.30;99.90;;;;;;5075962;28;20042;-64
2024/01/12 08:07:03;;;;;;;14.20;5.20;;;2.30;99.90;;;;;;5077626;28;20123;-63
2024/01/12 08:09:29;;;;;;;14.63;5.22;;;2.30;99.90;;;;;;5080983;28;20564;-62
2024/01/12 08:11:55;;;;;;;10.65;5.00;;;2.40;99.90;;;;;;5070607;28;20032;-62
2024/01/12 08:14:20;;;;;;;11.32;6.10;;;2.40;99.90;;;;;;5067652;28;20036;-63
2024/01/12 08:16:46;;;;;;;13.05;6.70;;;2.40;99.90;;;;;;5068734;28;20399;-63
2024/01/12 08:19:12;;;;;;;13.52;6.43;;;2.50;99.90;;;;;;5068216;28;20040;-63
2024/01/12 08:21:38;;;;;;;13.77;6.38;;;2.50;99.90;;;;;;5068755;28;20044;-62
2024/01/12 08:24:03;;;;;;;13.98;5.97;;;2.60;99.90;;;;;;5069026;28;20372;-63
2024/01/12 08:26:29;;;;;;;16.10;7.10;;;2.60;99.90;;;;;;5068543;28;20076;-65
2024/01/12 08:28:56;;;;;;;10.05;5.38;;;2.60;99.90;;;;;;5068485;28;20036;-63
2024/01/12 08:31:22;;;;;;;13.00;5.55;;;2.60;99.90;;;;;;5085770;28;20497;-65
2024/01/12 08:33:49;;;;;;;12.07;5.13;;;2.60;99.90;;;;;;5068159;28;20037;-63
2024/01/12 08:36:15;;;;;;;11.85;6.15;;;2.60;99.90;;;;;;5052887;28;20049;-63
2024/01/12 08:38:42;;;;;;;13.68;6.15;;;2.60;99.90;;;;;;5068610;28;20044;-64
2024/01/12 08:41:07;;;;;;;15.23;5.80;;;2.60;99.90;;;;;;5069698;28;20029;-64
2024/01/12 08:43:33;;;;;;;12.05;5.85;;;2.50;99.90;;;;;;5068678;28;20045;-63
2024/01/12 08:45:58;;;;;;;12.20;5.28;;;2.50;99.90;;;;;;5067889;28;20048;-64
2024/01/12 08:48:24;;;;;;;10.50;5.20;;;2.50;99.90;;;;;;5067669;28;20032;-64
2024/01/12 08:50:50;;;;;;;16.50;5.43;;;2.60;99.90;;;;;;5071717;28;20037;-63
2024/01/12 08:53:16;;;;;;;13.60;6.28;;;2.60;99.90;;;;;;5072703;28;20138;-61
2024/01/12 08:55:42;;;;;;;15.20;5.50;;;2.70;99.90;;;;;;5081256;28;20063;-62
2024/01/12 08:58:08;;;;;;;14.43;5.95;;;2.70;99.90;;;;;;5078579;28;20040;-63
2024/01/12 09:00:34;;;;;;;12.25;5.65;;;2.80;99.90;;;;;;5070086;28;20060;-64
2024/01/12 09:02:59;;;;;;;18.30;5.90;;;2.80;99.90;;;;;;5072263;28;20086;-62
2024/01/12 09:05:25;;;;;;;9.98;5.30;;;2.80;99.90;;;;;;5072163;28;20093;-63
2024/01/12 09:07:51;;;;;;;15.10;6.22;;;2.80;99.90;;;;;;5072397;28;20067;-63
2024/01/12 09:10:17;;;;;;;12.48;4.55;;;2.80;99.90;;;;;;5070222;28;20091;-63
2024/01/12 09:12:43;;;;;;;11.07;5.20;;;2.80;99.90;;;;;;5070324;28;20090;-64
2024/01/12 09:15:09;;;;;;;14.98;5.20;;;2.90;99.90;;;;;;5072726;28;20090;-63
2024/01/12 09:17:35;;;;;;;10.73;5.03;;;2.90;99.90;;;;;;5071892;28;20048;-63
2024/01/12 09:20:01;;;;;;;11.38;5.15;;;2.90;99.90;;;;;;5072414;28;20467;-64
2024/01/12 09:22:26;;;;;;;10.10;4.53;;;2.90;99.90;;;;;;5068436;28;20067;-64
2024/01/12 09:24:52;;;;;;;15.55;5.65;;;2.90;99.90;;;;;;5070044;28;20036;-64
2024/01/12 09:27:18;;;;;;;8.95;4.53;;;3.00;99.90;;;;;;5072069;28;20139;-63
2024/01/12 09:29:44;;;;;;;6.97;4.63;;;3.00;99.90;;;;;;5071375;28;20040;-64
2024/01/12 09:32:09;;;;;;;10.05;4.20;;;3.00;99.90;;;;;;5077544;28;20071;-63
2024/01/12 09:34:35;;;;;;;11.07;4.50;;;3.10;99.90;;;;;;5077093;28;20039;-63
2024/01/12 09:37:01;;;;;;;11.88;4.85;;;3.10;99.90;;;;;;5077218;28;20043;-63
2024/01/12 09:39:26;;;;;;;18.00;6.35;;;3.10;99.90;;;;;;5070000;28;20033;-63
2024/01/12 09:42:02;;;;;;;14.88;5.80;;;3.10;99.90;;;;;;5071735;28;20407;-63
2024/01/12 09:44:28;;;;;;;10.50;4.55;;;3.10;99.90;;;;;;5072097;28;20115;-64
2024/01/12 09:46:56;;;;;;;10.52;4.25;;;3.10;99.90;;;;;;5074384;28;20535;-64
2024/01/12 09:49:23;;;;;;;16.27;4.55;;;3.10;99.90;;;;;;5054684;28;20103;-64
2024/01/12 09:51:49;;;;;;;14.23;4.53;;;3.10;99.90;;;;;;5068848;28;20052;-62
2024/01/12 09:54:16;;;;;;;13.90;4.70;;;3.20;99.90;;;;;;5085871;28;20047;-64
2024/01/12 09:56:46;;;;;;;16.38;4.55;;;3.20;99.90;;;;;;5087965;28;20041;-64
2024/01/12 09:59:11;;;;;;;14.65;4.78;;;3.20;99.90;;;;;;5074546;28;20040;-63
2024/01/12 10:01:40;;;;;;;12.68;5.05;;;3.30;99.90;;;;;;5069800;28;20052;-65
2024/01/12 10:04:06;;;;;;;9.15;3.80;;;3.30;99.90;;;;;;5058748;28;20043;-64
2024/01/12 10:06:32;;;;;;;10.38;3.92;;;3.40;99.90;;;;;;5086381;28;20044;-65
2024/01/12 10:08:58;;;;;;;19.65;4.05;;;3.50;99.90;;;;;;5088002;28;20036;-64
2024/01/12 10:11:24;;;;;;;17.15;4.88;;;3.50;99.90;;;;;;5084365;28;20479;-65
2024/01/12 10:13:50;;;;;;;12.27;3.75;;;3.50;99.90;;;;;;5073664;28;20047;-64
2024/01/12 10:16:17;;;;;;;14.38;4.30;;;3.60;99.90;;;;;;5079546;28;20049;-65
2024/01/12 10:18:42;;;;;;;13.95;4.28;;;3.60;99.90;;;;;;5070641;28;20044;-63
2024/01/12 10:21:08;;;;;;;15.82;3.72;;;3.70;99.90;;;;;;5069661;28;20051;-63
2024/01/12 10:23:34;;;;;;;16.70;3.30;;;3.70;99.90;;;;;;5051999;28;20036;-64
2024/01/12 10:26:03;;;;;;;16.80;4.13;;;3.80;99.90;;;;;;5082286;28;20040;-64
2024/01/12 10:28:33;;;;;;;18.75;3.83;;;3.90;99.90;;;;;;5076692;28;20043;-65
2024/01/12 10:31:07;;;;;;;16.42;3.55;;;3.90;99.90;;;;;;5072041;28;20055;-65
2024/01/12 10:33:33;;;;;;;14.90;3.55;;;4.00;99.90;;;;;;5052915;28;20222;-63
2024/01/12 10:36:10;;;;;;;16.75;3.30;;;4.00;99.90;;;;;;5069982;28;20040;-63
2024/01/12 10:38:38;;;;;;;16.67;4.53;;;4.10;99.90;;;;;;5070855;28;20068;-64
2024/01/12 10:41:10;;;;;;;13.80;2.95;;;4.20;99.90;;;;;;5070643;28;20036;-64
2024/01/12 10:43:38;;;;;;;16.90;2.92;;;4.20;99.90;;;;;;5071132;28;20492;-64
2024/01/12 10:46:26;;;;;;;14.45;2.75;;;4.30;99.90;;;;;;5069059;28;20033;-65
2024/01/12 10:49:12;;;;;;;13.57;3.08;;;4.40;99.90;;;;;;4987430;28;20042;-64
2024/01/12 10:51:41;;;;;;;14.35;3.25;;;4.40;99.90;;;;;;4976528;28;20087;-63
2024/01/12 10:54:17;;;;;;;11.65;2.38;;;4.40;99.90;;;;;;5005801;28;20568;-64
2024/01/12 10:56:44;;;;;;;13.80;2.90;;;4.50;99.90;;;;;;4975794;28;20468;-65
2024/01/12 10:59:11;;;;;;;17.58;2.80;;;4.50;99.90;;;;;;4974903;28;20042;-63
2024/01/12 11:01:38;;;;;;;9.90;2.40;;;4.50;99.90;;;;;;4987163;28;20110;-64
2024/01/12 11:04:05;;;;;;;17.90;3.10;;;4.60;99.90;;;;;;4974210;28;20449;-63
2024/01/12 11:06:31;;;;;;;18.77;3.20;;;4.60;99.90;;;;;;4980320;28;20049;-65
2024/01/12 11:08:57;;;;;;;18.15;3.38;;;4.60;99.90;;;;;;4985489;28;20136;-63
2024/01/12 11:11:31;;;;;;;15.77;2.65;;;4.60;99.90;;;;;;4993284;28;20049;-65
2024/01/12 11:13:58;;;;;;;13.65;2.40;;;4.70;99.90;;;;;;4993124;28;20053;-63
2024/01/12 11:16:24;;;;;;;11.98;2.70;;;4.70;99.90;;;;;;4985046;28;20518;-64
2024/01/12 11:18:50;;;;;;;12.73;2.35;;;4.70;99.90;;;;;;4979917;28;20145;-65
2024/01/12 11:21:24;;;;;;;14.68;2.55;;;4.70;99.90;;;;;;4992714;28;20038;-65
2024/01/12 11:23:50;;;;;;;14.00;2.40;;;4.70;99.90;;;;;;5008915;28;20191;-63
2024/01/12 11:26:17;;;;;;;15.13;2.30;;;4.70;99.90;;;;;;5049667;28;20119;-64
2024/01/12 11:28:44;;;;;;;13.55;2.95;;;4.70;99.90;;;;;;5068366;28;20037;-63
2024/01/12 11:31:09;;;;;;;20.25;2.50;;;4.70;99.90;;;;;;5065990;28;20044;-64
2024/01/12 11:33:41;;;;;;;15.60;2.75;;;4.80;99.90;;;;;;5071105;28;20040;-63
2024/01/12 11:36:17;;;;;;;16.70;2.88;;;4.80;99.90;;;;;;5083831;28;20032;-64
2024/01/12 11:38:43;;;;;;;15.02;2.35;;;4.80;99.90;;;;;;5062632;28;20037;-65
2024/01/12 11:41:13;;;;;;;18.00;2.72;;;4.80;99.90;;;;;;5083158;28;20058;-63
2024/01/12 11:43:39;;;;;;;18.45;3.05;;;4.80;99.90;;;;;;5054886;28;20074;-63
2024/01/12 11:46:05;;;;;;;17.90;2.42;;;4.80;99.90;;;;;;5068636;28;20112;-65
2024/01/12 11:48:32;;;;;;;19.30;3.80;;;4.80;99.90;;;;;;5049912;28;20043;-64
2024/01/12 11:50:58;;;;;;;18.42;3.15;;;4.70;99.90;;;;;;5066478;28;20044;-63
2024/01/12 11:53:24;;;;;;;17.48;2.58;;;4.70;99.90;;;;;;5067777;28;20395;-64
2024/01/12 11:55:49;;;;;;;11.13;2.92;;;4.80;99.90;;;;;;5075866;28;20104;-64
2024/01/12 11:58:15;;;;;;;14.73;2.60;;;4.80;99.90;;;;;;5076818;28;20048;-65
2024/01/12 12:00:41;;;;;;;11.48;2.20;;;4.80;99.90;;;;;;5067830;28;20037;-63
2024/01/12 12:03:08;;;;;;;13.73;2.55;;;4.80;99.90;;;;;;5053338;28;20040;-64
2024/01/12 12:05:34;;;;;;;14.60;3.10;;;4.80;99.90;;;;;;5072750;28;20040;-63
2024/01/12 12:08:02;;;;;;;16.77;2.55;;;4.80;99.90;;;;;;5080320;28;20442;-64
2024/01/12 12:10:28;;;;;;;12.32;2.38;;;4.80;99.90;;;;;;5081691;28;20263;-64
2024/01/12 12:12:54;;;;;;;27.02;3.47;;;4.80;99.90;;;;;;5071459;28;20036;-65
2024/01/12 12:15:20;;;;;;;12.60;2.67;;;4.80;99.90;;;;;;5081928;28;20116;-65
2024/01/12 12:17:48;;;;;;;21.52;3.17;;;4.80;99.90;;;;;;5076331;28;20518;-65
2024/01/12 12:20:13;;;;;;;17.23;3.05;;;4.80;99.90;;;;;;5075992;28;20078;-64
2024/01/12 12:22:44;;;;;;;16.15;4.00;;;4.80;99.90;;;;;;5075020;28;20064;-63
2024/01/12 12:25:11;;;;;;;21.40;2.97;;;4.80;99.90;;;;;;5068776;28;20043;-66
2024/01/12 12:27:41;;;;;;;19.08;3.70;;;4.80;99.90;;;;;;5070188;28;20043;-63
2024/01/12 12:30:12;;;;;;;17.38;3.15;;;4.80;99.90;;;;;;5070473;28;20044;-63
2024/01/12 12:32:42;;;;;;;16.23;3.17;;;4.80;99.90;;;;;;5078619;28;20124;-64
2024/01/12 12:35:17;;;;;;;21.98;3.38;;;4.90;99.90;;;;;;5080042;28;20076;-64
2024/01/12 12:37:43;;;;;;;12.73;2.90;;;4.90;99.90;;;;;;5073245;28;20053;-64
2024/01/12 12:40:13;;;;;;;10.70;2.65;;;4.90;99.90;;;;;;5070016;28;20089;-63
2024/01/12 12:42:44;;;;;;;14.30;3.20;;;5.00;99.90;;;;;;5072555;28;20040;-64